createdAt,value
2017-06-22T00:00:00.184Z,75.10
2017-06-22T00:02:27.864Z,75.10
2017-06-22T00:04:56.136Z,75.10
2017-06-22T00:07:23.450Z,75.10
2017-06-22T00:09:51.228Z,75.10
2017-06-22T00:12:18.530Z,75.10
2017-06-22T00:14:45.826Z,75.10
2017-06-22T00:17:13.092Z,75.10
2017-06-22T00:19:40.382Z,75.10
2017-06-22T00:22:08.045Z,75.10
2017-06-22T00:24:35.315Z,75.10
2017-06-22T00:27:02.774Z,75.10
2017-06-22T00:29:30.050Z,75.10
2017-06-22T00:31:57.334Z,75.10
2017-06-22T00:34:24.823Z,75.10
2017-06-22T00:36:52.108Z,75.10
2017-06-22T00:39:19.381Z,75.10
2017-06-22T00:41:46.663Z,75.10
2017-06-22T00:44:14.359Z,75.10
2017-06-22T00:46:41.642Z,75.10
2017-06-22T00:49:08.908Z,75.10
2017-06-22T00:51:36.180Z,75.10
2017-06-22T00:54:03.447Z,75.10
2017-06-22T00:56:30.721Z,75.10
2017-06-22T00:58:57.989Z,75.10
2017-06-22T01:01:25.283Z,75.10
2017-06-22T01:03:52.556Z,75.10
2017-06-22T01:06:19.836Z,75.10
2017-06-22T01:08:47.101Z,75.10
2017-06-22T01:11:14.377Z,75.10
2017-06-22T01:13:41.645Z,75.10
2017-06-22T01:16:08.913Z,75.10
2017-06-22T01:18:36.193Z,75.10
2017-06-22T01:21:03.464Z,75.10
2017-06-22T01:23:30.733Z,75.10
2017-06-22T01:25:58.004Z,75.10
2017-06-22T01:28:25.291Z,75.10
2017-06-22T01:30:52.559Z,75.20
2017-06-22T01:33:19.848Z,75.10
2017-06-22T01:35:47.116Z,75.20
2017-06-22T01:38:14.407Z,75.10
2017-06-22T01:40:41.691Z,75.20
2017-06-22T01:43:08.982Z,75.10
2017-06-22T01:45:36.267Z,75.10
2017-06-22T01:48:03.545Z,75.10
2017-06-22T01:50:30.835Z,75.10
2017-06-22T01:52:58.103Z,75.10
2017-06-22T01:55:25.387Z,75.20
2017-06-22T01:57:52.848Z,75.10
2017-06-22T02:00:20.276Z,75.10
2017-06-22T02:02:47.949Z,75.10
2017-06-22T02:05:15.220Z,75.20
2017-06-22T02:07:42.802Z,75.20
2017-06-22T02:10:10.077Z,75.20
2017-06-22T02:12:37.367Z,75.20
2017-06-22T02:15:04.655Z,75.20
2017-06-22T02:17:31.932Z,75.20
2017-06-22T02:19:59.200Z,75.20
2017-06-22T02:22:26.487Z,75.10
2017-06-22T02:24:53.761Z,75.10
2017-06-22T02:27:21.042Z,75.20
2017-06-22T02:29:48.328Z,75.20
2017-06-22T02:32:15.604Z,75.20
2017-06-22T02:34:42.871Z,75.10
2017-06-22T02:37:10.150Z,75.20
2017-06-22T02:39:37.421Z,75.20
2017-06-22T02:42:04.706Z,75.20
2017-06-22T02:44:32.079Z,75.20
2017-06-22T02:46:59.348Z,75.10
2017-06-22T02:49:26.643Z,75.20
2017-06-22T02:51:53.926Z,75.10
2017-06-22T02:54:21.220Z,75.10
2017-06-22T02:56:48.503Z,75.10
2017-06-22T02:59:15.772Z,75.10
2017-06-22T03:01:43.058Z,75.20
2017-06-22T03:04:10.508Z,75.20
2017-06-22T03:06:37.777Z,75.20
2017-06-22T03:09:05.048Z,75.20
2017-06-22T03:11:32.317Z,75.20
2017-06-22T03:13:59.607Z,75.10
2017-06-22T03:16:27.457Z,75.20
2017-06-22T03:18:55.139Z,75.20
2017-06-22T03:21:22.413Z,75.20
2017-06-22T03:23:49.694Z,75.10
2017-06-22T03:26:16.955Z,75.20
2017-06-22T03:28:44.228Z,75.20
2017-06-22T03:31:11.515Z,75.20
2017-06-22T03:33:38.806Z,75.20
2017-06-22T03:36:06.091Z,75.20
2017-06-22T03:38:33.378Z,75.20
2017-06-22T03:41:00.655Z,75.20
2017-06-22T03:43:28.036Z,75.20
2017-06-22T03:45:55.301Z,75.20
2017-06-22T03:48:22.591Z,75.20
2017-06-22T03:50:49.874Z,75.10
2017-06-22T03:53:17.140Z,75.20
2017-06-22T03:55:44.409Z,75.20
2017-06-22T03:58:11.673Z,75.20
2017-06-22T04:00:38.964Z,75.20
2017-06-22T04:03:06.250Z,75.20
2017-06-22T04:05:33.846Z,75.20
2017-06-22T04:08:01.280Z,75.20
2017-06-22T04:10:28.945Z,75.20
2017-06-22T04:12:56.272Z,75.20
2017-06-22T04:15:23.575Z,75.20
2017-06-22T04:17:50.860Z,75.20
2017-06-22T04:20:18.132Z,75.20
2017-06-22T04:22:46.644Z,75.20
2017-06-22T04:25:14.308Z,75.20
2017-06-22T04:27:41.586Z,75.20
2017-06-22T04:30:08.870Z,75.20
2017-06-22T04:32:36.141Z,75.20
2017-06-22T04:35:03.429Z,75.20
2017-06-22T04:37:30.716Z,75.20
2017-06-22T04:39:58.263Z,75.20
2017-06-22T04:42:25.721Z,75.20
2017-06-22T04:44:53.000Z,75.20
2017-06-22T04:47:20.279Z,75.20
2017-06-22T04:49:47.556Z,75.20
2017-06-22T04:52:14.850Z,75.20
2017-06-22T04:54:42.120Z,75.20
2017-06-22T04:57:09.389Z,75.20
2017-06-22T04:59:36.660Z,75.20
2017-06-22T05:02:04.324Z,75.20
2017-06-22T05:04:31.910Z,75.20
2017-06-22T05:06:59.199Z,75.20
2017-06-22T05:09:26.464Z,75.20
2017-06-22T05:11:53.732Z,75.20
2017-06-22T05:14:21.024Z,75.20
2017-06-22T05:16:48.338Z,75.20
2017-06-22T05:19:15.613Z,75.20
2017-06-22T05:21:42.897Z,75.20
2017-06-22T05:24:10.169Z,75.20
2017-06-22T05:26:37.433Z,75.20
2017-06-22T05:29:04.728Z,75.20
2017-06-22T05:31:32.010Z,75.20
2017-06-22T05:33:59.281Z,75.20
2017-06-22T05:36:26.554Z,75.20
2017-06-22T05:38:54.129Z,75.20
2017-06-22T05:41:21.811Z,75.20
2017-06-22T05:43:49.094Z,75.20
2017-06-22T05:46:16.384Z,75.20
2017-06-22T05:48:43.665Z,75.20
2017-06-22T05:51:10.942Z,75.20
2017-06-22T05:53:38.216Z,75.20
2017-06-22T05:56:05.498Z,75.10
2017-06-22T05:58:32.789Z,75.20
2017-06-22T06:01:00.091Z,75.20
2017-06-22T06:03:27.366Z,75.20
2017-06-22T06:05:54.633Z,75.20
2017-06-22T06:08:21.919Z,75.10
2017-06-22T06:10:49.202Z,75.20
2017-06-22T06:13:16.491Z,75.20
2017-06-22T06:15:43.775Z,75.10
2017-06-22T06:18:11.040Z,75.10
2017-06-22T06:20:38.460Z,75.10
2017-06-22T06:23:05.733Z,75.10
2017-06-22T06:25:33.005Z,75.10
2017-06-22T06:28:00.671Z,75.10
2017-06-22T06:30:28.228Z,75.10
2017-06-22T06:32:55.761Z,75.10
2017-06-22T06:35:23.024Z,75.10
2017-06-22T06:37:50.300Z,75.10
2017-06-22T06:40:17.582Z,75.10
2017-06-22T06:42:44.867Z,75.10
2017-06-22T06:45:12.147Z,75.10
2017-06-22T06:47:39.547Z,75.10
2017-06-22T06:50:07.208Z,75.10
2017-06-22T06:52:34.473Z,75.10
2017-06-22T06:55:02.157Z,75.10
2017-06-22T06:57:29.432Z,75.10
2017-06-22T06:59:56.703Z,75.10
2017-06-22T07:02:23.971Z,75.10
2017-06-22T07:04:51.265Z,75.10
2017-06-22T07:07:18.551Z,75.10
2017-06-22T07:09:45.825Z,75.10
2017-06-22T07:12:13.099Z,75.10
2017-06-22T07:14:40.391Z,75.10
2017-06-22T07:17:07.945Z,75.10
2017-06-22T07:19:35.216Z,75.10
2017-06-22T07:22:02.489Z,75.10
2017-06-22T07:24:29.775Z,75.10
2017-06-22T07:26:57.059Z,75.10
2017-06-22T07:29:24.352Z,75.10
2017-06-22T07:31:51.639Z,75.10
2017-06-22T07:34:19.089Z,75.10
2017-06-22T07:36:46.762Z,75.10
2017-06-22T07:39:14.341Z,75.10
2017-06-22T07:41:41.631Z,75.10
2017-06-22T07:44:08.900Z,75.10
2017-06-22T07:46:36.173Z,75.10
2017-06-22T07:49:03.454Z,75.10
2017-06-22T07:51:30.729Z,75.10
2017-06-22T07:53:57.995Z,75.10
2017-06-22T07:56:25.283Z,75.10
2017-06-22T07:58:52.955Z,75.10
2017-06-22T08:01:20.381Z,75.10
2017-06-22T08:03:47.662Z,75.10
2017-06-22T08:06:14.933Z,75.10
2017-06-22T08:08:42.214Z,75.10
2017-06-22T08:11:09.502Z,75.10
2017-06-22T08:13:36.792Z,75.10
2017-06-22T08:16:04.084Z,75.20
2017-06-22T08:18:31.353Z,75.10
2017-06-22T08:20:58.648Z,75.10
2017-06-22T08:23:25.927Z,75.10
2017-06-22T08:25:54.165Z,75.10
2017-06-22T08:28:21.956Z,75.10
2017-06-22T08:30:49.249Z,75.10
2017-06-22T08:33:16.577Z,75.10
2017-06-22T08:35:43.867Z,75.10
2017-06-22T08:38:11.135Z,75.10
2017-06-22T08:40:38.408Z,75.10
2017-06-22T08:43:05.768Z,75.10
2017-06-22T08:45:33.046Z,75.10
2017-06-22T08:48:00.332Z,75.10
2017-06-22T08:50:27.600Z,75.10
2017-06-22T08:52:54.879Z,75.10
2017-06-22T08:55:22.154Z,75.10
2017-06-22T08:57:49.439Z,75.10
2017-06-22T09:00:16.726Z,75.10
2017-06-22T09:02:44.005Z,75.10
2017-06-22T09:05:11.285Z,75.10
2017-06-22T09:07:38.557Z,75.10
2017-06-22T09:10:05.832Z,75.10
2017-06-22T09:12:33.106Z,75.10
2017-06-22T09:15:00.381Z,75.10
2017-06-22T09:17:27.657Z,75.10
2017-06-22T09:19:55.067Z,75.10
2017-06-22T09:22:22.351Z,75.10
2017-06-22T09:24:50.968Z,75.10
2017-06-22T09:27:18.632Z,75.10
2017-06-22T09:29:46.501Z,75.10
2017-06-22T09:32:14.169Z,75.10
2017-06-22T09:34:41.459Z,75.10
2017-06-22T09:37:08.733Z,75.10
2017-06-22T09:39:36.010Z,75.10
2017-06-22T09:42:03.281Z,75.10
2017-06-22T09:44:30.553Z,75.10
2017-06-22T09:46:58.114Z,75.10
2017-06-22T09:49:25.394Z,75.10
2017-06-22T09:51:52.672Z,75.10
2017-06-22T09:54:20.102Z,75.10
2017-06-22T09:56:47.364Z,75.10
2017-06-22T09:59:14.647Z,75.10
2017-06-22T10:01:41.916Z,75.10
2017-06-22T10:04:09.199Z,75.10
2017-06-22T10:06:36.473Z,75.10
2017-06-22T10:09:03.758Z,75.10
2017-06-22T10:11:31.028Z,75.10
2017-06-22T10:13:58.307Z,75.10
2017-06-22T10:16:25.761Z,75.10
2017-06-22T10:18:53.074Z,75.10
2017-06-22T10:21:20.353Z,75.10
2017-06-22T10:23:47.822Z,75.10
2017-06-22T10:26:15.115Z,75.10
2017-06-22T10:28:42.398Z,75.10
2017-06-22T10:31:10.087Z,75.10
2017-06-22T10:33:37.370Z,75.10
2017-06-22T10:36:04.639Z,75.10
2017-06-22T10:38:31.909Z,75.10
2017-06-22T10:40:59.181Z,75.10
2017-06-22T10:43:26.450Z,75.10
2017-06-22T10:45:53.726Z,75.10
2017-06-22T10:48:21.015Z,75.10
2017-06-22T10:50:48.299Z,75.10
2017-06-22T10:53:16.693Z,75.10
2017-06-22T10:55:43.970Z,75.10
2017-06-22T10:58:11.303Z,75.10
2017-06-22T11:00:38.756Z,75.10
2017-06-22T11:03:06.028Z,75.10
2017-06-22T11:05:33.314Z,75.10
2017-06-22T11:08:00.589Z,75.10
2017-06-22T11:10:27.857Z,75.10
2017-06-22T11:12:55.128Z,75.10
2017-06-22T11:15:22.397Z,75.10
2017-06-22T11:17:49.695Z,75.10
2017-06-22T11:20:17.356Z,75.10
2017-06-22T11:22:44.630Z,75.10
2017-06-22T11:25:11.919Z,75.10
2017-06-22T11:27:39.193Z,75.10
2017-06-22T11:30:06.486Z,75.10
2017-06-22T11:32:33.760Z,75.10
2017-06-22T11:35:01.032Z,75.10
2017-06-22T11:37:28.309Z,75.10
2017-06-22T11:39:55.577Z,75.10
2017-06-22T11:42:23.241Z,75.10
2017-06-22T11:44:50.508Z,75.10
2017-06-22T11:47:17.795Z,75.10
2017-06-22T11:49:45.082Z,75.10
2017-06-22T11:52:12.356Z,75.10
2017-06-22T11:54:39.643Z,75.10
2017-06-22T11:57:06.907Z,75.10
2017-06-22T11:59:34.177Z,75.10
2017-06-22T12:02:01.462Z,75.10
2017-06-22T12:04:29.133Z,75.10
2017-06-22T12:06:56.708Z,75.10
2017-06-22T12:09:23.976Z,75.10
2017-06-22T12:11:51.258Z,75.10
2017-06-22T12:14:18.551Z,75.10
2017-06-22T12:16:45.839Z,75.10
2017-06-22T12:19:13.132Z,75.10
2017-06-22T12:21:42.064Z,75.10
2017-06-22T12:24:09.356Z,75.10
2017-06-22T12:26:36.632Z,75.10
2017-06-22T12:29:03.914Z,75.10
2017-06-22T12:31:31.199Z,75.10
2017-06-22T12:33:58.486Z,75.10
2017-06-22T12:36:25.820Z,75.10
2017-06-22T12:38:53.089Z,75.10
2017-06-22T12:41:20.488Z,75.10
2017-06-22T12:43:47.764Z,75.10
2017-06-22T12:46:15.114Z,75.10
2017-06-22T12:48:42.394Z,75.10
2017-06-22T12:51:09.664Z,75.10
2017-06-22T12:53:36.956Z,75.10
2017-06-22T12:56:04.244Z,75.10
2017-06-22T12:58:31.532Z,75.10
2017-06-22T13:00:58.810Z,75.10
2017-06-22T13:03:26.359Z,75.10
2017-06-22T13:05:54.099Z,75.10
2017-06-22T13:08:21.369Z,75.10
2017-06-22T13:10:48.640Z,75.10
2017-06-22T13:13:15.917Z,75.10
2017-06-22T13:15:43.183Z,75.10
2017-06-22T13:18:10.466Z,75.10
2017-06-22T13:20:37.728Z,75.10
2017-06-22T13:23:04.996Z,75.10
2017-06-22T13:25:32.283Z,75.10
2017-06-22T13:27:59.571Z,75.10
2017-06-22T13:30:26.836Z,75.10
2017-06-22T13:32:54.110Z,75.10
2017-06-22T13:35:21.394Z,75.10
2017-06-22T13:37:48.719Z,75.10
2017-06-22T13:40:16.018Z,75.10
2017-06-22T13:42:43.307Z,75.10
2017-06-22T13:45:10.586Z,75.10
2017-06-22T13:47:37.853Z,75.10
2017-06-22T13:50:05.125Z,75.10
2017-06-22T13:52:32.411Z,75.10
2017-06-22T13:54:59.700Z,75.10
2017-06-22T13:57:27.068Z,75.10
2017-06-22T13:59:54.339Z,75.10
2017-06-22T14:02:21.966Z,75.10
2017-06-22T14:04:49.246Z,75.10
2017-06-22T14:07:16.515Z,75.10
2017-06-22T14:09:43.802Z,75.10
2017-06-22T14:12:11.090Z,75.10
2017-06-22T14:14:38.352Z,75.10
2017-06-22T14:17:05.805Z,75.10
2017-06-22T14:19:33.091Z,75.10
2017-06-22T14:22:00.360Z,75.10
2017-06-22T14:24:27.644Z,75.10
2017-06-22T14:26:54.912Z,75.10
2017-06-22T14:29:22.204Z,75.10
2017-06-22T14:31:49.487Z,75.10
2017-06-22T14:34:16.764Z,75.10
2017-06-22T14:36:44.052Z,75.10
2017-06-22T14:39:11.334Z,75.10
2017-06-22T14:41:38.603Z,75.10
2017-06-22T14:44:05.898Z,75.10
2017-06-22T14:46:33.177Z,75.10
2017-06-22T14:49:00.872Z,75.20
2017-06-22T14:51:28.536Z,75.10
2017-06-22T14:53:55.812Z,75.10
2017-06-22T14:56:23.089Z,75.10
2017-06-22T14:58:50.358Z,75.10
2017-06-22T15:01:17.644Z,75.10
2017-06-22T15:03:44.913Z,75.10
2017-06-22T15:06:12.386Z,75.10
2017-06-22T15:08:39.671Z,75.10
2017-06-22T15:11:08.296Z,75.10
2017-06-22T15:13:35.976Z,75.10
2017-06-22T15:16:03.243Z,75.10
2017-06-22T15:18:30.515Z,75.10
2017-06-22T15:20:57.849Z,75.10
2017-06-22T15:23:25.120Z,75.10
2017-06-22T15:25:52.406Z,75.10
2017-06-22T15:28:19.671Z,75.10
2017-06-22T15:30:46.945Z,75.10
2017-06-22T15:33:14.231Z,75.10
2017-06-22T15:35:41.520Z,75.10
2017-06-22T15:38:08.846Z,75.10
2017-06-22T15:40:36.131Z,75.10
2017-06-22T15:43:03.517Z,75.10
2017-06-22T15:45:30.804Z,75.20
2017-06-22T15:47:58.088Z,75.10
2017-06-22T15:50:25.371Z,75.10
2017-06-22T15:52:52.632Z,75.10
2017-06-22T15:55:20.218Z,75.10
2017-06-22T15:57:47.489Z,75.10
2017-06-22T16:00:14.779Z,75.20
2017-06-22T16:02:42.063Z,75.10
2017-06-22T16:05:09.337Z,75.20
2017-06-22T16:07:36.618Z,75.20
2017-06-22T16:10:03.885Z,75.20
2017-06-22T16:12:31.548Z,75.20
2017-06-22T16:14:58.832Z,75.20
2017-06-22T16:17:26.097Z,75.20
2017-06-22T16:19:53.847Z,75.20
2017-06-22T16:22:21.357Z,75.20
2017-06-22T16:24:48.660Z,75.20
2017-06-22T16:27:15.942Z,75.20
2017-06-22T16:29:43.216Z,75.20
2017-06-22T16:32:10.483Z,75.20
2017-06-22T16:34:38.199Z,75.20
2017-06-22T16:37:05.551Z,75.20
2017-06-22T16:39:32.829Z,75.20
2017-06-22T16:42:00.105Z,75.20
2017-06-22T16:44:28.011Z,75.20
2017-06-22T16:46:56.696Z,75.20
2017-06-22T16:49:23.984Z,75.20
2017-06-22T16:51:51.262Z,75.20
2017-06-22T16:54:18.528Z,75.20
2017-06-22T16:56:45.797Z,75.20
2017-06-22T16:59:13.083Z,75.20
2017-06-22T17:01:40.366Z,75.20
2017-06-22T17:04:07.637Z,75.20
2017-06-22T17:06:35.306Z,75.20
2017-06-22T17:09:02.583Z,75.20
2017-06-22T17:11:29.859Z,75.20
2017-06-22T17:13:57.143Z,75.20
2017-06-22T17:16:24.426Z,75.20
2017-06-22T17:18:51.707Z,75.20
2017-06-22T17:21:18.969Z,75.20
2017-06-22T17:23:46.236Z,75.20
2017-06-22T17:26:13.519Z,75.20
2017-06-22T17:28:41.223Z,75.20
2017-06-22T17:31:08.499Z,75.20
2017-06-22T17:33:35.775Z,75.20
2017-06-22T17:36:03.045Z,75.20
2017-06-22T17:38:30.724Z,75.20
2017-06-22T17:40:58.016Z,75.20
2017-06-22T17:43:25.276Z,75.20
2017-06-22T17:45:52.892Z,75.20
2017-06-22T17:48:20.184Z,75.20
2017-06-22T17:50:47.479Z,75.20
2017-06-22T17:53:15.164Z,75.20
2017-06-22T17:55:42.336Z,75.20
2017-06-22T17:58:09.617Z,75.20
2017-06-22T18:00:37.036Z,75.20
2017-06-22T18:03:04.316Z,75.20
2017-06-22T18:05:31.605Z,75.80
2017-06-22T18:07:59.291Z,75.80
2017-06-22T18:10:26.557Z,75.80
2017-06-22T18:12:53.821Z,76.40
2017-06-22T18:15:21.096Z,76.60
2017-06-22T18:17:48.616Z,76.50
2017-06-22T18:20:15.994Z,76.40
2017-06-22T18:22:43.445Z,76.20
2017-06-22T18:25:10.733Z,76.30
2017-06-22T18:27:38.401Z,76.30
2017-06-22T18:30:07.043Z,76.20
2017-06-22T18:32:34.357Z,76.20
2017-06-22T18:35:02.284Z,76.20
2017-06-22T18:37:29.809Z,76.20
2017-06-22T18:39:57.095Z,76.10
2017-06-22T18:42:24.978Z,76.00
2017-06-22T18:44:53.411Z,76.00
2017-06-22T18:47:20.868Z,76.00
2017-06-22T18:49:48.323Z,76.00
2017-06-22T18:52:16.599Z,76.00
2017-06-22T18:54:44.396Z,76.00
2017-06-22T18:57:11.696Z,76.00
2017-06-22T18:59:39.380Z,76.00
2017-06-22T19:02:07.496Z,76.00
2017-06-22T19:04:35.222Z,75.90
2017-06-22T19:07:03.600Z,75.90
2017-06-22T19:09:31.208Z,75.90
2017-06-22T19:12:00.397Z,75.90
2017-06-22T19:14:28.120Z,75.90
2017-06-22T19:16:56.862Z,75.90
2017-06-22T19:19:24.570Z,75.90
2017-06-22T19:21:53.197Z,75.90
2017-06-22T19:24:21.273Z,75.90
2017-06-22T19:26:48.583Z,75.90
2017-06-22T19:29:16.397Z,75.80
2017-06-22T19:31:45.233Z,75.80
2017-06-22T19:34:12.999Z,75.80
2017-06-22T19:36:40.763Z,75.90
2017-06-22T19:39:08.832Z,75.80
2017-06-22T19:41:37.342Z,75.80
2017-06-22T19:44:04.667Z,75.80
2017-06-22T19:46:32.423Z,75.80
2017-06-22T19:48:59.894Z,75.80
2017-06-22T19:51:27.177Z,75.90
2017-06-22T19:53:55.064Z,75.80
2017-06-22T19:56:22.454Z,75.80
2017-06-22T19:58:49.792Z,75.80
2017-06-22T20:01:17.082Z,75.90
2017-06-22T20:03:44.348Z,75.80
2017-06-22T20:06:11.640Z,75.80
2017-06-22T20:08:39.154Z,75.80
2017-06-22T20:11:06.447Z,75.80
2017-06-22T20:13:34.088Z,75.80
2017-06-22T20:16:01.380Z,75.80
2017-06-22T20:18:28.764Z,75.80
2017-06-22T20:20:56.040Z,75.80
2017-06-22T20:23:23.699Z,75.90
2017-06-22T20:25:50.977Z,75.80
2017-06-22T20:28:18.248Z,75.80
2017-06-22T20:30:45.940Z,75.80
2017-06-22T20:33:13.239Z,75.80
2017-06-22T20:35:40.728Z,75.80
2017-06-22T20:38:08.028Z,75.80
2017-06-22T20:40:35.315Z,75.80
2017-06-22T20:43:02.594Z,75.80
2017-06-22T20:45:29.877Z,75.80
2017-06-22T20:47:58.719Z,75.80
2017-06-22T20:50:26.074Z,75.80
2017-06-22T20:52:53.782Z,75.80
2017-06-22T20:55:21.132Z,75.70
2017-06-22T20:57:48.427Z,75.70
2017-06-22T21:00:15.725Z,75.70
2017-06-22T21:02:43.847Z,75.70
2017-06-22T21:05:11.367Z,75.70
2017-06-22T21:07:40.636Z,75.70
2017-06-22T21:10:08.844Z,75.70
2017-06-22T21:12:36.146Z,75.70
2017-06-22T21:15:03.769Z,75.70
2017-06-22T21:17:31.064Z,75.70
2017-06-22T21:19:58.361Z,75.70
2017-06-22T21:22:25.531Z,75.70
2017-06-22T21:24:53.468Z,75.70
2017-06-22T21:27:20.770Z,75.70
2017-06-22T21:29:48.962Z,75.70
2017-06-22T21:32:17.341Z,75.70
2017-06-22T21:34:45.387Z,75.70
2017-06-22T21:37:13.040Z,75.60
2017-06-22T21:39:41.751Z,75.70
2017-06-22T21:42:09.028Z,75.70
2017-06-22T21:44:37.019Z,75.60
2017-06-22T21:47:04.302Z,75.60
2017-06-22T21:49:32.688Z,75.60
2017-06-22T21:52:02.002Z,75.60
2017-06-22T21:54:32.725Z,75.60
2017-06-22T21:57:02.131Z,75.60
2017-06-22T21:59:31.899Z,75.60
2017-06-22T22:02:01.442Z,75.60
2017-06-22T22:04:29.109Z,75.60
2017-06-22T22:06:56.436Z,75.60
2017-06-22T22:09:23.714Z,75.60
2017-06-22T22:11:51.000Z,75.60
2017-06-22T22:14:18.544Z,75.60
2017-06-22T22:16:45.973Z,75.60
2017-06-22T22:19:13.250Z,75.60
2017-06-22T22:21:40.520Z,75.60
2017-06-22T22:24:07.807Z,75.60
2017-06-22T22:26:35.258Z,75.60
2017-06-22T22:29:02.543Z,75.60
2017-06-22T22:31:29.837Z,75.60
2017-06-22T22:33:57.134Z,75.60
2017-06-22T22:36:24.427Z,75.60
2017-06-22T22:38:51.706Z,75.60
2017-06-22T22:41:20.016Z,75.60
2017-06-22T22:43:47.292Z,75.60
2017-06-22T22:46:14.555Z,75.60
2017-06-22T22:48:41.829Z,75.60
2017-06-22T22:51:09.097Z,75.60
2017-06-22T22:53:36.387Z,75.60
2017-06-22T22:56:03.657Z,75.60
2017-06-22T22:58:30.947Z,75.60
2017-06-22T23:00:58.261Z,75.60
2017-06-22T23:03:25.551Z,75.60
2017-06-22T23:05:52.978Z,75.60
2017-06-22T23:08:20.259Z,75.60
2017-06-22T23:10:47.641Z,75.60
2017-06-22T23:13:14.917Z,75.60
2017-06-22T23:15:42.200Z,75.60
2017-06-22T23:18:10.309Z,75.60
2017-06-22T23:20:38.006Z,75.60
2017-06-22T23:23:05.296Z,75.60
2017-06-22T23:25:32.607Z,75.60
2017-06-22T23:27:59.889Z,75.60
2017-06-22T23:30:28.921Z,75.60
2017-06-22T23:32:56.468Z,75.60
2017-06-22T23:37:57.367Z,75.60
2017-06-22T23:40:24.656Z,75.60
2017-06-22T23:42:51.925Z,75.60
2017-06-22T23:45:19.210Z,75.60
2017-06-22T23:47:46.495Z,75.60
2017-06-22T23:50:13.768Z,75.60
2017-06-22T23:52:41.055Z,75.60
2017-06-22T23:55:08.338Z,75.60
2017-06-22T23:57:35.604Z,75.60
